sensor_id;sensor_type;location;lat;lon;timestamp;P1;durP1;ratioP1;P2;durP2;ratioP2
35114;SDS011;21292;52.416;13.046;2023-04-01T00:00:39;4.97;;;2.00;;
35114;SDS011;21292;52.416;13.046;2023-04-01T00:03:07;7.00;;;2.33;;
35114;SDS011;21292;52.416;13.046;2023-04-01T00:05:36;6.43;;;2.38;;
35114;SDS011;21292;52.416;13.046;2023-04-01T00:08:04;2.72;;;1.75;;
35114;SDS011;21292;52.416;13.046;2023-04-01T00:10:33;6.25;;;2.55;;
35114;SDS011;21292;52.416;13.046;2023-04-01T00:13:01;2.30;;;2.00;;
35114;SDS011;21292;52.416;13.046;2023-04-01T00:15:32;4.78;;;2.10;;
35114;SDS011;21292;52.416;13.046;2023-04-01T00:18:02;5.18;;;2.17;;
35114;SDS011;21292;52.416;13.046;2023-04-01T00:20:30;5.20;;;2.17;;
35114;SDS011;21292;52.416;13.046;2023-04-01T00:22:58;5.15;;;2.15;;
35114;SDS011;21292;52.416;13.046;2023-04-01T00:25:27;6.15;;;2.20;;
35114;SDS011;21292;52.416;13.046;2023-04-01T00:27:55;4.00;;;2.30;;
35114;SDS011;21292;52.416;13.046;2023-04-01T00:30:24;3.97;;;2.28;;
35114;SDS011;21292;52.416;13.046;2023-04-01T00:32:53;7.18;;;2.55;;
35114;SDS011;21292;52.416;13.046;2023-04-01T00:35:22;4.13;;;1.95;;
35114;SDS011;21292;52.416;13.046;2023-04-01T00:37:51;6.20;;;2.30;;
35114;SDS011;21292;52.416;13.046;2023-04-01T00:40:24;4.90;;;2.33;;
35114;SDS011;21292;52.416;13.046;2023-04-01T00:45:26;4.57;;;1.70;;
35114;SDS011;21292;52.416;13.046;2023-04-01T00:47:59;6.13;;;2.17;;
35114;SDS011;21292;52.416;13.046;2023-04-01T00:50:30;5.03;;;2.05;;
35114;SDS011;21292;52.416;13.046;2023-04-01T00:52:59;3.58;;;1.95;;
35114;SDS011;21292;52.416;13.046;2023-04-01T00:55:30;8.25;;;2.40;;
35114;SDS011;21292;52.416;13.046;2023-04-01T00:58:00;4.43;;;1.90;;
35114;SDS011;21292;52.416;13.046;2023-04-01T01:00:30;7.70;;;2.40;;
35114;SDS011;21292;52.416;13.046;2023-04-01T01:02:59;3.55;;;1.95;;
35114;SDS011;21292;52.416;13.046;2023-04-01T01:05:40;4.18;;;1.98;;
35114;SDS011;21292;52.416;13.046;2023-04-01T01:08:17;4.35;;;1.92;;
35114;SDS011;21292;52.416;13.046;2023-04-01T01:10:53;7.18;;;1.98;;
35114;SDS011;21292;52.416;13.046;2023-04-01T01:13:22;6.07;;;2.55;;
35114;SDS011;21292;52.416;13.046;2023-04-01T01:15:55;5.80;;;2.13;;
35114;SDS011;21292;52.416;13.046;2023-04-01T01:21:02;3.70;;;2.20;;
35114;SDS011;21292;52.416;13.046;2023-04-01T01:26:43;4.57;;;2.22;;
35114;SDS011;21292;52.416;13.046;2023-04-01T01:29:24;4.07;;;2.28;;
35114;SDS011;21292;52.416;13.046;2023-04-01T01:31:58;6.93;;;2.33;;
35114;SDS011;21292;52.416;13.046;2023-04-01T01:34:32;5.53;;;2.30;;
35114;SDS011;21292;52.416;13.046;2023-04-01T01:37:08;4.90;;;2.00;;
35114;SDS011;21292;52.416;13.046;2023-04-01T01:39:38;4.35;;;2.50;;
35114;SDS011;21292;52.416;13.046;2023-04-01T01:42:08;5.80;;;2.20;;
35114;SDS011;21292;52.416;13.046;2023-04-01T01:44:38;6.45;;;2.28;;
35114;SDS011;21292;52.416;13.046;2023-04-01T01:47:06;7.32;;;2.45;;
35114;SDS011;21292;52.416;13.046;2023-04-01T01:49:36;7.55;;;2.33;;
35114;SDS011;21292;52.416;13.046;2023-04-01T01:52:07;10.02;;;2.90;;
35114;SDS011;21292;52.416;13.046;2023-04-01T01:54:35;9.57;;;2.35;;
35114;SDS011;21292;52.416;13.046;2023-04-01T01:57:04;7.38;;;2.60;;
35114;SDS011;21292;52.416;13.046;2023-04-01T01:59:35;7.57;;;2.58;;
35114;SDS011;21292;52.416;13.046;2023-04-01T02:02:06;4.32;;;2.50;;
35114;SDS011;21292;52.416;13.046;2023-04-01T02:04:35;4.95;;;2.10;;
35114;SDS011;21292;52.416;13.046;2023-04-01T02:07:08;5.95;;;2.20;;
35114;SDS011;21292;52.416;13.046;2023-04-01T02:09:39;4.63;;;2.45;;
35114;SDS011;21292;52.416;13.046;2023-04-01T02:12:08;11.15;;;3.75;;
35114;SDS011;21292;52.416;13.046;2023-04-01T02:14:39;9.73;;;3.65;;
35114;SDS011;21292;52.416;13.046;2023-04-01T02:17:09;7.82;;;2.88;;
35114;SDS011;21292;52.416;13.046;2023-04-01T02:19:39;7.45;;;2.60;;
35114;SDS011;21292;52.416;13.046;2023-04-01T02:22:11;7.32;;;2.55;;
35114;SDS011;21292;52.416;13.046;2023-04-01T02:24:42;11.65;;;3.58;;
35114;SDS011;21292;52.416;13.046;2023-04-01T02:27:12;7.30;;;3.00;;
35114;SDS011;21292;52.416;13.046;2023-04-01T02:29:40;4.82;;;2.33;;
35114;SDS011;21292;52.416;13.046;2023-04-01T02:32:08;7.63;;;2.50;;
35114;SDS011;21292;52.416;13.046;2023-04-01T02:34:38;6.85;;;2.63;;
35114;SDS011;21292;52.416;13.046;2023-04-01T02:37:06;6.30;;;2.90;;
35114;SDS011;21292;52.416;13.046;2023-04-01T02:39:36;9.85;;;2.60;;
35114;SDS011;21292;52.416;13.046;2023-04-01T02:42:05;6.63;;;2.80;;
35114;SDS011;21292;52.416;13.046;2023-04-01T02:44:33;6.32;;;2.65;;
35114;SDS011;21292;52.416;13.046;2023-04-01T02:47:02;5.47;;;2.50;;
35114;SDS011;21292;52.416;13.046;2023-04-01T02:49:31;6.05;;;2.80;;
35114;SDS011;21292;52.416;13.046;2023-04-01T02:52:00;9.60;;;3.15;;
35114;SDS011;21292;52.416;13.046;2023-04-01T02:54:28;7.57;;;2.88;;
35114;SDS011;21292;52.416;13.046;2023-04-01T02:56:58;8.57;;;3.03;;
35114;SDS011;21292;52.416;13.046;2023-04-01T02:59:27;8.43;;;3.00;;
35114;SDS011;21292;52.416;13.046;2023-04-01T03:01:55;7.32;;;2.70;;
35114;SDS011;21292;52.416;13.046;2023-04-01T03:04:23;11.63;;;3.38;;
35114;SDS011;21292;52.416;13.046;2023-04-01T03:06:53;10.05;;;2.92;;
35114;SDS011;21292;52.416;13.046;2023-04-01T03:09:22;11.43;;;2.88;;
35114;SDS011;21292;52.416;13.046;2023-04-01T03:11:50;8.23;;;2.45;;
35114;SDS011;21292;52.416;13.046;2023-04-01T03:14:20;8.00;;;3.15;;
35114;SDS011;21292;52.416;13.046;2023-04-01T03:16:48;10.40;;;3.03;;
35114;SDS011;21292;52.416;13.046;2023-04-01T03:19:18;8.23;;;2.78;;
35114;SDS011;21292;52.416;13.046;2023-04-01T03:21:46;8.77;;;2.97;;
35114;SDS011;21292;52.416;13.046;2023-04-01T03:24:15;11.65;;;3.35;;
35114;SDS011;21292;52.416;13.046;2023-04-01T03:26:44;10.15;;;2.72;;
35114;SDS011;21292;52.416;13.046;2023-04-01T03:29:13;7.13;;;2.65;;
35114;SDS011;21292;52.416;13.046;2023-04-01T03:31:43;12.73;;;2.85;;
35114;SDS011;21292;52.416;13.046;2023-04-01T03:34:12;6.53;;;2.63;;
35114;SDS011;21292;52.416;13.046;2023-04-01T03:36:40;9.43;;;2.65;;
35114;SDS011;21292;52.416;13.046;2023-04-01T03:39:08;13.05;;;3.33;;
35114;SDS011;21292;52.416;13.046;2023-04-01T03:41:39;4.55;;;3.25;;
35114;SDS011;21292;52.416;13.046;2023-04-01T03:44:08;11.02;;;2.80;;
35114;SDS011;21292;52.416;13.046;2023-04-01T03:46:36;6.55;;;2.60;;
35114;SDS011;21292;52.416;13.046;2023-04-01T03:49:07;11.45;;;3.05;;
35114;SDS011;21292;52.416;13.046;2023-04-01T03:51:38;10.02;;;3.13;;
35114;SDS011;21292;52.416;13.046;2023-04-01T03:54:06;6.10;;;2.97;;
35114;SDS011;21292;52.416;13.046;2023-04-01T03:56:35;10.30;;;3.08;;
35114;SDS011;21292;52.416;13.046;2023-04-01T03:59:04;9.40;;;3.28;;
35114;SDS011;21292;52.416;13.046;2023-04-01T04:01:34;8.10;;;3.65;;
35114;SDS011;21292;52.416;13.046;2023-04-01T04:04:02;10.25;;;3.22;;
35114;SDS011;21292;52.416;13.046;2023-04-01T04:06:32;10.18;;;2.85;;
35114;SDS011;21292;52.416;13.046;2023-04-01T04:09:01;13.63;;;3.95;;
35114;SDS011;21292;52.416;13.046;2023-04-01T04:11:30;14.55;;;3.70;;
35114;SDS011;21292;52.416;13.046;2023-04-01T04:13:58;8.60;;;2.83;;
35114;SDS011;21292;52.416;13.046;2023-04-01T04:16:27;12.07;;;3.88;;
35114;SDS011;21292;52.416;13.046;2023-04-01T04:18:55;9.50;;;3.47;;
35114;SDS011;21292;52.416;13.046;2023-04-01T04:21:24;12.45;;;3.58;;
35114;SDS011;21292;52.416;13.046;2023-04-01T04:23:54;10.95;;;3.60;;
35114;SDS011;21292;52.416;13.046;2023-04-01T04:26:23;10.98;;;4.10;;
35114;SDS011;21292;52.416;13.046;2023-04-01T04:28:53;10.93;;;4.03;;
35114;SDS011;21292;52.416;13.046;2023-04-01T04:31:22;9.85;;;3.78;;
35114;SDS011;21292;52.416;13.046;2023-04-01T04:33:51;10.50;;;4.05;;
35114;SDS011;21292;52.416;13.046;2023-04-01T04:36:20;14.40;;;4.50;;
35114;SDS011;21292;52.416;13.046;2023-04-01T04:38:50;9.35;;;4.25;;
35114;SDS011;21292;52.416;13.046;2023-04-01T04:41:20;13.95;;;4.38;;
35114;SDS011;21292;52.416;13.046;2023-04-01T04:43:49;10.10;;;4.00;;
35114;SDS011;21292;52.416;13.046;2023-04-01T04:46:18;15.52;;;3.88;;
35114;SDS011;21292;52.416;13.046;2023-04-01T04:48:47;11.57;;;4.45;;
35114;SDS011;21292;52.416;13.046;2023-04-01T04:51:16;22.27;;;4.82;;
35114;SDS011;21292;52.416;13.046;2023-04-01T04:53:46;16.00;;;4.68;;
35114;SDS011;21292;52.416;13.046;2023-04-01T04:56:17;9.82;;;4.38;;
35114;SDS011;21292;52.416;13.046;2023-04-01T04:58:48;14.45;;;5.13;;
35114;SDS011;21292;52.416;13.046;2023-04-01T05:01:16;12.10;;;5.25;;
35114;SDS011;21292;52.416;13.046;2023-04-01T05:03:45;14.90;;;4.78;;
35114;SDS011;21292;52.416;13.046;2023-04-01T05:06:14;10.25;;;4.60;;
35114;SDS011;21292;52.416;13.046;2023-04-01T05:08:46;17.38;;;5.15;;
35114;SDS011;21292;52.416;13.046;2023-04-01T05:11:15;15.38;;;5.43;;
35114;SDS011;21292;52.416;13.046;2023-04-01T05:13:45;14.07;;;5.32;;
35114;SDS011;21292;52.416;13.046;2023-04-01T05:16:15;20.33;;;5.30;;
35114;SDS011;21292;52.416;13.046;2023-04-01T05:18:44;13.38;;;5.18;;
35114;SDS011;21292;52.416;13.046;2023-04-01T05:21:14;14.77;;;5.15;;
35114;SDS011;21292;52.416;13.046;2023-04-01T05:23:43;11.65;;;5.45;;
35114;SDS011;21292;52.416;13.046;2023-04-01T05:26:12;13.35;;;4.75;;
35114;SDS011;21292;52.416;13.046;2023-04-01T05:28:41;14.00;;;5.13;;
35114;SDS011;21292;52.416;13.046;2023-04-01T05:31:09;13.27;;;4.65;;
35114;SDS011;21292;52.416;13.046;2023-04-01T05:33:39;10.32;;;4.70;;
35114;SDS011;21292;52.416;13.046;2023-04-01T05:36:08;18.95;;;5.65;;
35114;SDS011;21292;52.416;13.046;2023-04-01T05:38:37;13.18;;;5.45;;
35114;SDS011;21292;52.416;13.046;2023-04-01T05:41:07;13.30;;;3.95;;
35114;SDS011;21292;52.416;13.046;2023-04-01T05:43:36;15.63;;;4.75;;
35114;SDS011;21292;52.416;13.046;2023-04-01T05:46:04;7.15;;;4.22;;
35114;SDS011;21292;52.416;13.046;2023-04-01T05:48:33;13.32;;;4.57;;
35114;SDS011;21292;52.416;13.046;2023-04-01T05:51:03;12.43;;;4.43;;
35114;SDS011;21292;52.416;13.046;2023-04-01T05:53:32;16.15;;;4.70;;
35114;SDS011;21292;52.416;13.046;2023-04-01T05:56:03;14.30;;;4.40;;
35114;SDS011;21292;52.416;13.046;2023-04-01T05:58:32;13.95;;;4.70;;
35114;SDS011;21292;52.416;13.046;2023-04-01T06:01:03;13.60;;;3.78;;
35114;SDS011;21292;52.416;13.046;2023-04-01T06:03:39;9.00;;;3.85;;
35114;SDS011;21292;52.416;13.046;2023-04-01T06:06:11;15.32;;;4.13;;
35114;SDS011;21292;52.416;13.046;2023-04-01T06:08:42;8.77;;;3.40;;
35114;SDS011;21292;52.416;13.046;2023-04-01T06:11:17;8.27;;;2.85;;
35114;SDS011;21292;52.416;13.046;2023-04-01T06:14:02;11.27;;;3.53;;
35114;SDS011;21292;52.416;13.046;2023-04-01T06:16:39;7.72;;;2.95;;
35114;SDS011;21292;52.416;13.046;2023-04-01T06:19:16;7.50;;;2.90;;
35114;SDS011;21292;52.416;13.046;2023-04-01T06:25:00;10.20;;;3.15;;
35114;SDS011;21292;52.416;13.046;2023-04-01T06:28:07;9.70;;;2.53;;
35114;SDS011;21292;52.416;13.046;2023-04-01T06:31:00;7.05;;;3.35;;
35114;SDS011;21292;52.416;13.046;2023-04-01T06:33:36;10.45;;;2.47;;
35114;SDS011;21292;52.416;13.046;2023-04-01T06:36:15;10.40;;;2.67;;
35114;SDS011;21292;52.416;13.046;2023-04-01T06:38:57;10.55;;;3.35;;
35114;SDS011;21292;52.416;13.046;2023-04-01T06:41:46;9.23;;;3.00;;
35114;SDS011;21292;52.416;13.046;2023-04-01T06:44:22;7.38;;;2.63;;
35114;SDS011;21292;52.416;13.046;2023-04-01T06:46:57;13.18;;;2.70;;
35114;SDS011;21292;52.416;13.046;2023-04-01T06:49:33;7.10;;;2.97;;
35114;SDS011;21292;52.416;13.046;2023-04-01T06:52:15;13.50;;;3.25;;
35114;SDS011;21292;52.416;13.046;2023-04-01T06:54:48;8.52;;;3.05;;
35114;SDS011;21292;52.416;13.046;2023-04-01T06:57:21;12.80;;;3.10;;
35114;SDS011;21292;52.416;13.046;2023-04-01T06:59:57;9.43;;;3.33;;
35114;SDS011;21292;52.416;13.046;2023-04-01T07:02:29;8.52;;;2.70;;
35114;SDS011;21292;52.416;13.046;2023-04-01T07:05:02;8.13;;;2.63;;
35114;SDS011;21292;52.416;13.046;2023-04-01T07:07:35;7.07;;;3.00;;
35114;SDS011;21292;52.416;13.046;2023-04-01T07:10:09;5.60;;;2.40;;
35114;SDS011;21292;52.416;13.046;2023-04-01T07:12:42;4.53;;;2.42;;
35114;SDS011;21292;52.416;13.046;2023-04-01T07:15:15;7.10;;;2.47;;
35114;SDS011;21292;52.416;13.046;2023-04-01T07:17:47;12.35;;;2.75;;
35114;SDS011;21292;52.416;13.046;2023-04-01T07:20:19;5.38;;;2.72;;
35114;SDS011;21292;52.416;13.046;2023-04-01T07:22:49;5.10;;;2.28;;
35114;SDS011;21292;52.416;13.046;2023-04-01T07:27:53;8.27;;;2.97;;
35114;SDS011;21292;52.416;13.046;2023-04-01T07:32:53;6.40;;;2.50;;
35114;SDS011;21292;52.416;13.046;2023-04-01T07:35:25;11.10;;;2.95;;
35114;SDS011;21292;52.416;13.046;2023-04-01T07:38:02;4.15;;;2.55;;
35114;SDS011;21292;52.416;13.046;2023-04-01T07:40:42;4.97;;;2.67;;
35114;SDS011;21292;52.416;13.046;2023-04-01T07:46:06;9.00;;;2.35;;
35114;SDS011;21292;52.416;13.046;2023-04-01T07:48:40;3.95;;;2.13;;
35114;SDS011;21292;52.416;13.046;2023-04-01T07:51:14;6.90;;;2.20;;
35114;SDS011;21292;52.416;13.046;2023-04-01T07:53:46;7.88;;;2.67;;
35114;SDS011;21292;52.416;13.046;2023-04-01T07:56:18;5.65;;;2.17;;
35114;SDS011;21292;52.416;13.046;2023-04-01T07:58:54;7.82;;;2.20;;
35114;SDS011;21292;52.416;13.046;2023-04-01T08:01:29;7.15;;;2.38;;
35114;SDS011;21292;52.416;13.046;2023-04-01T08:04:07;5.97;;;2.10;;
35114;SDS011;21292;52.416;13.046;2023-04-01T08:06:44;7.00;;;2.13;;
35114;SDS011;21292;52.416;13.046;2023-04-01T08:09:16;7.95;;;2.25;;
35114;SDS011;21292;52.416;13.046;2023-04-01T08:11:54;6.15;;;1.60;;
35114;SDS011;21292;52.416;13.046;2023-04-01T08:14:30;6.88;;;2.50;;
35114;SDS011;21292;52.416;13.046;2023-04-01T08:17:08;5.88;;;2.35;;
35114;SDS011;21292;52.416;13.046;2023-04-01T08:19:48;5.70;;;2.53;;
35114;SDS011;21292;52.416;13.046;2023-04-01T08:22:25;5.63;;;1.93;;
35114;SDS011;21292;52.416;13.046;2023-04-01T08:24:56;9.18;;;2.17;;
35114;SDS011;21292;52.416;13.046;2023-04-01T08:27:31;4.93;;;2.10;;
35114;SDS011;21292;52.416;13.046;2023-04-01T08:30:05;7.75;;;3.05;;
35114;SDS011;21292;52.416;13.046;2023-04-01T08:32:45;6.72;;;2.35;;
35114;SDS011;21292;52.416;13.046;2023-04-01T08:35:17;4.97;;;1.92;;
35114;SDS011;21292;52.416;13.046;2023-04-01T08:40:28;5.18;;;1.40;;
35114;SDS011;21292;52.416;13.046;2023-04-01T08:43:07;6.78;;;2.28;;
35114;SDS011;21292;52.416;13.046;2023-04-01T08:45:42;3.20;;;2.00;;
35114;SDS011;21292;52.416;13.046;2023-04-01T08:48:19;7.35;;;1.80;;
35114;SDS011;21292;52.416;13.046;2023-04-01T08:51:06;5.57;;;2.20;;
35114;SDS011;21292;52.416;13.046;2023-04-01T08:54:04;8.05;;;2.28;;
35114;SDS011;21292;52.416;13.046;2023-04-01T08:56:41;3.08;;;1.60;;
35114;SDS011;21292;52.416;13.046;2023-04-01T08:59:30;4.65;;;1.92;;
35114;SDS011;21292;52.416;13.046;2023-04-01T09:02:19;3.40;;;1.85;;
35114;SDS011;21292;52.416;13.046;2023-04-01T09:08:10;4.43;;;1.60;;
35114;SDS011;21292;52.416;13.046;2023-04-01T09:10:56;4.22;;;1.50;;
35114;SDS011;21292;52.416;13.046;2023-04-01T09:16:40;5.45;;;2.00;;
35114;SDS011;21292;52.416;13.046;2023-04-01T09:19:43;6.93;;;2.10;;
35114;SDS011;21292;52.416;13.046;2023-04-01T09:22:25;11.27;;;2.88;;
35114;SDS011;21292;52.416;13.046;2023-04-01T09:30:48;9.63;;;1.98;;
35114;SDS011;21292;52.416;13.046;2023-04-01T09:36:35;7.55;;;2.47;;
35114;SDS011;21292;52.416;13.046;2023-04-01T09:39:13;6.18;;;2.53;;
35114;SDS011;21292;52.416;13.046;2023-04-01T09:41:53;9.07;;;2.53;;
35114;SDS011;21292;52.416;13.046;2023-04-01T09:44:31;4.50;;;3.10;;
35114;SDS011;21292;52.416;13.046;2023-04-01T09:47:07;4.30;;;2.45;;
35114;SDS011;21292;52.416;13.046;2023-04-01T09:49:53;5.40;;;2.40;;
35114;SDS011;21292;52.416;13.046;2023-04-01T10:01:22;7.88;;;3.03;;
35114;SDS011;21292;52.416;13.046;2023-04-01T10:04:16;10.02;;;2.90;;
35114;SDS011;21292;52.416;13.046;2023-04-01T10:10:09;4.30;;;3.90;;
35114;SDS011;21292;52.416;13.046;2023-04-01T10:16:19;6.93;;;5.18;;
35114;SDS011;21292;52.416;13.046;2023-04-01T10:22:19;10.88;;;5.10;;
35114;SDS011;21292;52.416;13.046;2023-04-01T10:28:08;8.10;;;6.45;;
35114;SDS011;21292;52.416;13.046;2023-04-01T10:31:05;12.55;;;8.88;;
35114;SDS011;21292;52.416;13.046;2023-04-01T10:34:05;14.80;;;8.75;;
35114;SDS011;21292;52.416;13.046;2023-04-01T10:36:50;13.15;;;9.23;;
35114;SDS011;21292;52.416;13.046;2023-04-01T10:42:33;18.27;;;10.65;;
35114;SDS011;21292;52.416;13.046;2023-04-01T10:45:20;17.13;;;11.43;;
35114;SDS011;21292;52.416;13.046;2023-04-01T10:48:12;20.02;;;12.10;;
35114;SDS011;21292;52.416;13.046;2023-04-01T10:50:56;17.13;;;11.07;;
35114;SDS011;21292;52.416;13.046;2023-04-01T10:53:36;18.73;;;12.13;;
35114;SDS011;21292;52.416;13.046;2023-04-01T10:59:17;20.08;;;12.57;;
35114;SDS011;21292;52.416;13.046;2023-04-01T11:05:34;19.73;;;13.23;;
35114;SDS011;21292;52.416;13.046;2023-04-01T11:08:28;22.70;;;13.93;;
35114;SDS011;21292;52.416;13.046;2023-04-01T11:11:28;20.92;;;13.48;;
35114;SDS011;21292;52.416;13.046;2023-04-01T11:17:41;20.05;;;12.27;;
35114;SDS011;21292;52.416;13.046;2023-04-01T11:20:37;25.13;;;13.07;;
35114;SDS011;21292;52.416;13.046;2023-04-01T11:23:38;21.50;;;14.27;;
35114;SDS011;21292;52.416;13.046;2023-04-01T11:26:33;20.95;;;13.60;;
35114;SDS011;21292;52.416;13.046;2023-04-01T11:32:31;22.83;;;15.02;;
35114;SDS011;21292;52.416;13.046;2023-04-01T11:38:05;22.80;;;15.57;;
35114;SDS011;21292;52.416;13.046;2023-04-01T11:40:45;23.13;;;14.88;;
35114;SDS011;21292;52.416;13.046;2023-04-01T11:43:21;23.30;;;14.88;;
35114;SDS011;21292;52.416;13.046;2023-04-01T11:46:01;24.75;;;15.32;;
35114;SDS011;21292;52.416;13.046;2023-04-01T11:48:54;23.67;;;14.45;;
35114;SDS011;21292;52.416;13.046;2023-04-01T11:51:38;20.05;;;13.52;;
35114;SDS011;21292;52.416;13.046;2023-04-01T11:54:19;17.42;;;12.05;;
35114;SDS011;21292;52.416;13.046;2023-04-01T11:56:58;18.15;;;11.90;;
35114;SDS011;21292;52.416;13.046;2023-04-01T11:59:49;16.80;;;10.18;;
35114;SDS011;21292;52.416;13.046;2023-04-01T12:02:24;17.90;;;11.50;;
35114;SDS011;21292;52.416;13.046;2023-04-01T12:04:59;15.98;;;11.18;;
35114;SDS011;21292;52.416;13.046;2023-04-01T12:07:41;20.52;;;14.00;;
35114;SDS011;21292;52.416;13.046;2023-04-01T12:10:20;17.30;;;11.68;;
35114;SDS011;21292;52.416;13.046;2023-04-01T12:12:52;18.38;;;12.13;;
35114;SDS011;21292;52.416;13.046;2023-04-01T12:15:29;15.68;;;11.15;;
35114;SDS011;21292;52.416;13.046;2023-04-01T12:18:17;15.25;;;11.13;;
35114;SDS011;21292;52.416;13.046;2023-04-01T12:20:53;17.50;;;11.82;;
35114;SDS011;21292;52.416;13.046;2023-04-01T12:23:34;18.77;;;12.88;;
35114;SDS011;21292;52.416;13.046;2023-04-01T12:26:13;15.57;;;11.25;;
35114;SDS011;21292;52.416;13.046;2023-04-01T12:29:18;18.63;;;12.52;;
35114;SDS011;21292;52.416;13.046;2023-04-01T12:31:58;17.00;;;11.82;;
35114;SDS011;21292;52.416;13.046;2023-04-01T12:34:40;16.95;;;12.15;;
35114;SDS011;21292;52.416;13.046;2023-04-01T12:37:20;18.48;;;13.68;;
35114;SDS011;21292;52.416;13.046;2023-04-01T12:39:59;16.02;;;10.43;;
35114;SDS011;21292;52.416;13.046;2023-04-01T12:42:36;19.05;;;13.20;;
35114;SDS011;21292;52.416;13.046;2023-04-01T12:45:23;17.45;;;11.52;;
35114;SDS011;21292;52.416;13.046;2023-04-01T12:48:22;15.40;;;10.45;;
35114;SDS011;21292;52.416;13.046;2023-04-01T12:54:02;16.23;;;10.98;;
35114;SDS011;21292;52.416;13.046;2023-04-01T12:57:06;18.48;;;11.75;;
35114;SDS011;21292;52.416;13.046;2023-04-01T12:59:48;20.45;;;14.48;;
35114;SDS011;21292;52.416;13.046;2023-04-01T13:02:30;22.25;;;15.60;;
35114;SDS011;21292;52.416;13.046;2023-04-01T13:05:19;22.08;;;15.10;;
35114;SDS011;21292;52.416;13.046;2023-04-01T13:08:04;20.70;;;13.40;;
35114;SDS011;21292;52.416;13.046;2023-04-01T13:10:56;22.80;;;16.27;;
35114;SDS011;21292;52.416;13.046;2023-04-01T13:13:48;23.95;;;16.23;;
35114;SDS011;21292;52.416;13.046;2023-04-01T13:16:26;26.40;;;16.90;;
35114;SDS011;21292;52.416;13.046;2023-04-01T13:18:57;24.13;;;17.05;;
35114;SDS011;21292;52.416;13.046;2023-04-01T13:21:32;25.27;;;16.83;;
35114;SDS011;21292;52.416;13.046;2023-04-01T13:24:09;25.17;;;17.05;;
35114;SDS011;21292;52.416;13.046;2023-04-01T13:26:50;22.00;;;14.80;;
35114;SDS011;21292;52.416;13.046;2023-04-01T13:29:23;21.98;;;16.02;;
35114;SDS011;21292;52.416;13.046;2023-04-01T13:32:01;23.67;;;15.80;;
35114;SDS011;21292;52.416;13.046;2023-04-01T13:34:37;22.90;;;15.50;;
35114;SDS011;21292;52.416;13.046;2023-04-01T13:37:15;21.58;;;15.20;;
35114;SDS011;21292;52.416;13.046;2023-04-01T13:43:04;16.88;;;11.35;;
35114;SDS011;21292;52.416;13.046;2023-04-01T13:45:42;14.13;;;10.45;;
35114;SDS011;21292;52.416;13.046;2023-04-01T13:48:26;20.67;;;13.15;;
35114;SDS011;21292;52.416;13.046;2023-04-01T13:51:01;18.35;;;12.98;;
35114;SDS011;21292;52.416;13.046;2023-04-01T13:53:44;19.63;;;13.95;;
35114;SDS011;21292;52.416;13.046;2023-04-01T13:56:23;17.38;;;11.68;;
35114;SDS011;21292;52.416;13.046;2023-04-01T13:59:05;20.48;;;13.40;;
35114;SDS011;21292;52.416;13.046;2023-04-01T14:01:59;18.63;;;13.38;;
35114;SDS011;21292;52.416;13.046;2023-04-01T14:04:46;20.35;;;13.93;;
35114;SDS011;21292;52.416;13.046;2023-04-01T14:07:28;24.52;;;15.45;;
35114;SDS011;21292;52.416;13.046;2023-04-01T14:10:04;22.25;;;15.13;;
35114;SDS011;21292;52.416;13.046;2023-04-01T14:12:40;25.77;;;16.40;;
35114;SDS011;21292;52.416;13.046;2023-04-01T14:15:21;22.98;;;16.48;;
35114;SDS011;21292;52.416;13.046;2023-04-01T14:18:02;23.70;;;15.60;;
35114;SDS011;21292;52.416;13.046;2023-04-01T14:20:45;22.35;;;14.88;;
35114;SDS011;21292;52.416;13.046;2023-04-01T14:23:31;23.30;;;15.45;;
35114;SDS011;21292;52.416;13.046;2023-04-01T14:26:30;24.45;;;14.63;;
35114;SDS011;21292;52.416;13.046;2023-04-01T14:29:27;20.58;;;14.95;;
35114;SDS011;21292;52.416;13.046;2023-04-01T14:32:01;15.18;;;11.10;;
35114;SDS011;21292;52.416;13.046;2023-04-01T14:34:44;18.13;;;12.93;;
35114;SDS011;21292;52.416;13.046;2023-04-01T14:37:23;20.05;;;12.70;;
35114;SDS011;21292;52.416;13.046;2023-04-01T14:40:16;15.90;;;11.32;;
35114;SDS011;21292;52.416;13.046;2023-04-01T14:45:46;17.00;;;11.38;;
35114;SDS011;21292;52.416;13.046;2023-04-01T14:48:48;15.35;;;11.55;;
35114;SDS011;21292;52.416;13.046;2023-04-01T14:51:20;15.02;;;11.52;;
35114;SDS011;21292;52.416;13.046;2023-04-01T14:56:37;15.30;;;10.30;;
35114;SDS011;21292;52.416;13.046;2023-04-01T14:59:10;14.02;;;8.40;;
35114;SDS011;21292;52.416;13.046;2023-04-01T15:01:49;10.93;;;8.40;;
35114;SDS011;21292;52.416;13.046;2023-04-01T15:04:43;13.65;;;9.55;;
35114;SDS011;21292;52.416;13.046;2023-04-01T15:07:26;13.13;;;9.97;;
35114;SDS011;21292;52.416;13.046;2023-04-01T15:12:36;10.95;;;8.25;;
35114;SDS011;21292;52.416;13.046;2023-04-01T15:15:23;14.77;;;9.35;;
35114;SDS011;21292;52.416;13.046;2023-04-01T15:18:02;13.18;;;9.70;;
35114;SDS011;21292;52.416;13.046;2023-04-01T15:23:34;11.73;;;7.63;;
35114;SDS011;21292;52.416;13.046;2023-04-01T15:32:14;12.60;;;8.27;;
35114;SDS011;21292;52.416;13.046;2023-04-01T15:34:53;11.23;;;8.75;;
35114;SDS011;21292;52.416;13.046;2023-04-01T15:37:32;15.65;;;9.60;;
35114;SDS011;21292;52.416;13.046;2023-04-01T15:40:14;11.47;;;7.60;;
35114;SDS011;21292;52.416;13.046;2023-04-01T15:42:49;14.15;;;7.53;;
35114;SDS011;21292;52.416;13.046;2023-04-01T15:45:26;12.43;;;7.30;;
35114;SDS011;21292;52.416;13.046;2023-04-01T15:48:02;10.68;;;6.70;;
35114;SDS011;21292;52.416;13.046;2023-04-01T15:53:54;11.40;;;6.22;;
35114;SDS011;21292;52.416;13.046;2023-04-01T15:56:28;11.32;;;7.00;;
35114;SDS011;21292;52.416;13.046;2023-04-01T15:59:11;9.05;;;6.32;;
35114;SDS011;21292;52.416;13.046;2023-04-01T16:01:49;9.48;;;7.30;;
35114;SDS011;21292;52.416;13.046;2023-04-01T16:04:32;12.73;;;7.50;;
35114;SDS011;21292;52.416;13.046;2023-04-01T16:07:19;14.00;;;7.70;;
35114;SDS011;21292;52.416;13.046;2023-04-01T16:10:25;10.60;;;7.75;;
35114;SDS011;21292;52.416;13.046;2023-04-01T16:14:38;16.08;;;8.27;;
35114;SDS011;21292;52.416;13.046;2023-04-01T16:20:46;16.38;;;9.40;;
35114;SDS011;21292;52.416;13.046;2023-04-01T16:23:40;16.70;;;11.18;;
35114;SDS011;21292;52.416;13.046;2023-04-01T16:29:55;16.58;;;9.32;;
35114;SDS011;21292;52.416;13.046;2023-04-01T16:32:35;15.02;;;8.60;;
35114;SDS011;21292;52.416;13.046;2023-04-01T16:35:31;15.73;;;10.10;;
35114;SDS011;21292;52.416;13.046;2023-04-01T16:38:23;13.55;;;9.23;;
35114;SDS011;21292;52.416;13.046;2023-04-01T16:41:00;13.45;;;9.25;;
35114;SDS011;21292;52.416;13.046;2023-04-01T16:43:38;13.48;;;8.88;;
35114;SDS011;21292;52.416;13.046;2023-04-01T16:46:18;15.65;;;11.60;;
35114;SDS011;21292;52.416;13.046;2023-04-01T16:49:03;14.73;;;10.52;;
35114;SDS011;21292;52.416;13.046;2023-04-01T16:51:44;17.63;;;10.93;;
35114;SDS011;21292;52.416;13.046;2023-04-01T16:54:16;19.92;;;11.85;;
35114;SDS011;21292;52.416;13.046;2023-04-01T16:56:48;14.88;;;11.07;;
35114;SDS011;21292;52.416;13.046;2023-04-01T16:59:19;20.70;;;9.73;;
35114;SDS011;21292;52.416;13.046;2023-04-01T17:01:54;15.63;;;9.65;;
35114;SDS011;21292;52.416;13.046;2023-04-01T17:04:29;16.52;;;10.98;;
35114;SDS011;21292;52.416;13.046;2023-04-01T17:07:05;16.13;;;11.65;;
35114;SDS011;21292;52.416;13.046;2023-04-01T17:09:46;16.83;;;10.43;;